createdAt,value
2022-08-26T00:02:02.140Z,99409.31
2022-08-26T00:04:32.002Z,99406.59
2022-08-26T00:06:59.442Z,99410.41
2022-08-26T00:09:26.908Z,99411.50
2022-08-26T00:11:54.691Z,99401.81
2022-08-26T00:14:28.280Z,99409.91
2022-08-26T00:16:58.694Z,99406.97
2022-08-26T00:19:26.681Z,99405.50
2022-08-26T00:21:54.494Z,99399.56
2022-08-26T00:24:24.024Z,99409.34
2022-08-26T00:26:51.749Z,99401.22
2022-08-26T00:29:19.569Z,99405.28
2022-08-26T00:31:49.327Z,99401.22
2022-08-26T00:34:19.367Z,99403.44
2022-08-26T00:36:49.381Z,99400.03
2022-08-26T00:39:20.626Z,99399.37
2022-08-26T00:41:48.350Z,99395.97
2022-08-26T00:44:16.183Z,99395.72
2022-08-26T00:46:48.151Z,99393.72
2022-08-26T00:49:20.246Z,99387.88
2022-08-26T00:51:50.638Z,99389.91
2022-08-26T00:54:20.942Z,99397.69
2022-08-26T00:56:56.226Z,99388.59
2022-08-26T00:59:24.397Z,99389.78
2022-08-26T01:01:52.890Z,99389.19
2022-08-26T01:04:22.347Z,99387.38
2022-08-26T01:06:52.296Z,99385.34
2022-08-26T01:09:20.788Z,99387.38
2022-08-26T01:11:51.482Z,99377.41
2022-08-26T01:14:20.229Z,99385.13
2022-08-26T01:16:48.854Z,99381.63
2022-08-26T01:19:23.314Z,99388.69
2022-08-26T01:22:11.317Z,99387.16
2022-08-26T01:24:40.216Z,99384.22
2022-08-26T01:27:09.387Z,99383.50
2022-08-26T01:29:39.211Z,99383.50
2022-08-26T01:32:09.904Z,99386.56
2022-08-26T01:34:39.010Z,99381.97
2022-08-26T01:37:15.544Z,99384.19
2022-08-26T01:39:45.257Z,99383.37
2022-08-26T01:42:14.667Z,99383.37
2022-08-26T01:44:46.452Z,99374.38
2022-08-26T01:47:17.187Z,99379.59
2022-08-26T01:49:46.288Z,99377.94
2022-08-26T01:52:17.305Z,99372.03
2022-08-26T01:54:46.275Z,99374.38
2022-08-26T01:57:18.898Z,99374.91
2022-08-26T01:59:48.216Z,99374.41
2022-08-26T02:02:15.790Z,99383.50
2022-08-26T02:04:50.166Z,99379.97
2022-08-26T02:07:19.984Z,99380.91
2022-08-26T02:09:49.562Z,99375.13
2022-08-26T02:12:18.579Z,99374.03
2022-08-26T02:14:58.620Z,99372.50
2022-08-26T02:17:30.156Z,99366.97
2022-08-26T02:19:58.069Z,99377.09
2022-08-26T02:22:26.401Z,99374.41
2022-08-26T02:24:56.631Z,99370.97
2022-08-26T02:27:28.156Z,99367.31
2022-08-26T02:30:09.305Z,99370.97
2022-08-26T02:32:40.201Z,99376.41
2022-08-26T02:35:10.825Z,99380.53
2022-08-26T02:37:38.548Z,99379.81
2022-08-26T02:40:11.908Z,99378.28
2022-08-26T02:42:39.475Z,99376.53
2022-08-26T02:45:08.288Z,99375.69
2022-08-26T02:47:36.918Z,99370.38
2022-08-26T02:50:05.507Z,99368.00
2022-08-26T02:52:33.005Z,99370.84
2022-08-26T02:55:01.853Z,99373.59
2022-08-26T02:57:31.138Z,99373.81
2022-08-26T03:00:00.721Z,99362.81
2022-08-26T03:02:29.752Z,99368.69
2022-08-26T03:05:02.023Z,99365.22
2022-08-26T03:07:31.164Z,99368.75
2022-08-26T03:09:58.911Z,99359.25
2022-08-26T03:12:26.535Z,99362.97
2022-08-26T03:14:54.230Z,99362.72
2022-08-26T03:17:21.790Z,99362.56
2022-08-26T03:19:54.268Z,99360.97
2022-08-26T03:22:26.171Z,99358.41
2022-08-26T03:24:54.927Z,99361.34
2022-08-26T03:27:22.372Z,99364.12
2022-08-26T03:30:08.719Z,99359.50
2022-08-26T03:32:39.356Z,99349.72
2022-08-26T03:35:10.116Z,99357.66
2022-08-26T03:37:38.593Z,99359.63
2022-08-26T03:40:10.462Z,99348.03
2022-08-26T03:42:40.046Z,99362.50
2022-08-26T03:45:10.534Z,99359.88
2022-08-26T03:47:39.758Z,99353.25
2022-08-26T03:50:09.263Z,99351.41
2022-08-26T03:52:40.695Z,99359.75
2022-08-26T03:55:12.014Z,99355.25
2022-08-26T03:57:39.607Z,99360.28
2022-08-26T04:00:09.126Z,99360.28
2022-08-26T04:02:36.494Z,99350.75
2022-08-26T04:05:04.870Z,99351.25
2022-08-26T04:07:32.310Z,99353.00
2022-08-26T04:10:00.651Z,99353.03
2022-08-26T04:12:28.468Z,99355.19
2022-08-26T04:14:57.055Z,99358.56
2022-08-26T04:17:26.263Z,99352.87
2022-08-26T04:19:54.199Z,99358.13
2022-08-26T04:22:24.140Z,99355.38
2022-08-26T04:24:52.825Z,99358.06
2022-08-26T04:27:21.099Z,99354.19
2022-08-26T04:29:51.414Z,99361.53
2022-08-26T04:32:22.670Z,99360.78
2022-08-26T04:34:50.253Z,99359.78
2022-08-26T04:37:18.641Z,99368.50
2022-08-26T04:39:51.317Z,99356.84
2022-08-26T04:42:22.717Z,99358.97
2022-08-26T04:44:53.842Z,99360.59
2022-08-26T04:47:21.536Z,99357.91
2022-08-26T04:49:49.026Z,99354.38
2022-08-26T04:52:18.326Z,99362.69
2022-08-26T04:54:45.958Z,99360.94
2022-08-26T04:57:13.693Z,99367.22
2022-08-26T04:59:41.486Z,99359.06
2022-08-26T05:02:09.146Z,99365.19
2022-08-26T05:04:36.703Z,99355.28
2022-08-26T05:07:05.969Z,99362.72
2022-08-26T05:09:34.760Z,99368.03
2022-08-26T05:12:02.349Z,99363.91
2022-08-26T05:14:31.240Z,99354.81
2022-08-26T05:16:58.792Z,99363.91
2022-08-26T05:19:27.932Z,99365.53
2022-08-26T05:21:55.809Z,99365.22
2022-08-26T05:24:23.555Z,99361.44
2022-08-26T05:26:51.439Z,99364.72
2022-08-26T05:29:19.913Z,99365.06
2022-08-26T05:31:51.657Z,99368.09
2022-08-26T05:34:20.955Z,99375.19
2022-08-26T05:36:49.247Z,99369.28
2022-08-26T05:39:17.123Z,99362.91
2022-08-26T05:41:45.390Z,99364.38
2022-08-26T05:44:15.883Z,99368.87
2022-08-26T05:46:44.847Z,99382.19
2022-08-26T05:49:14.549Z,99381.44
2022-08-26T05:51:46.400Z,99376.09
2022-08-26T05:54:22.270Z,99372.25
2022-08-26T05:56:51.539Z,99376.00
2022-08-26T05:59:24.022Z,99372.69
2022-08-26T06:01:53.089Z,99380.78
2022-08-26T06:04:20.980Z,99375.63
2022-08-26T06:06:48.575Z,99375.53
2022-08-26T06:09:18.260Z,99386.50
2022-08-26T06:11:46.407Z,99382.22
2022-08-26T06:14:13.972Z,99385.44
2022-08-26T06:16:45.222Z,99391.94
2022-08-26T06:19:15.787Z,99391.50
2022-08-26T06:21:46.699Z,99391.50
2022-08-26T06:24:33.911Z,99385.03
2022-08-26T06:27:05.022Z,99386.75
2022-08-26T06:29:34.356Z,99383.78
2022-08-26T06:32:04.445Z,99386.50
2022-08-26T06:34:32.812Z,99393.50
2022-08-26T06:37:06.406Z,99394.50
2022-08-26T06:39:34.232Z,99392.53
2022-08-26T06:42:03.036Z,99392.00
2022-08-26T06:44:34.620Z,99390.72
2022-08-26T06:47:02.440Z,99397.63
2022-08-26T06:49:29.971Z,99397.28
2022-08-26T06:51:58.571Z,99394.81
2022-08-26T06:54:27.988Z,99382.31
2022-08-26T06:56:57.190Z,99388.72
2022-08-26T06:59:25.521Z,99386.00
2022-08-26T07:01:54.751Z,99388.34
2022-08-26T07:04:24.577Z,99390.44
2022-08-26T07:06:53.516Z,99390.03
2022-08-26T07:09:23.521Z,99388.47
2022-08-26T07:11:51.991Z,99383.34
2022-08-26T07:14:21.400Z,99389.72
2022-08-26T07:16:50.797Z,99389.53
2022-08-26T07:19:29.778Z,99397.41
2022-08-26T07:22:03.389Z,99390.03
2022-08-26T07:24:33.162Z,99397.22
2022-08-26T07:27:05.597Z,99394.78
2022-08-26T07:29:34.192Z,99392.28
2022-08-26T07:32:02.203Z,99387.47
2022-08-26T07:34:33.164Z,99388.94
2022-08-26T07:37:01.616Z,99391.56
2022-08-26T07:39:31.451Z,99393.69
2022-08-26T07:42:01.395Z,99385.31
2022-08-26T07:44:31.728Z,99382.63
2022-08-26T07:46:59.564Z,99386.22
2022-08-26T07:49:27.292Z,99383.53
2022-08-26T07:51:56.138Z,99391.53
2022-08-26T07:54:26.658Z,99390.41
2022-08-26T07:56:54.838Z,99387.41
2022-08-26T07:59:24.539Z,99386.81
2022-08-26T08:01:52.312Z,99389.34
2022-08-26T08:04:26.184Z,99387.97
2022-08-26T08:06:55.100Z,99387.31
2022-08-26T08:09:23.341Z,99391.22
2022-08-26T08:11:52.941Z,99384.06
2022-08-26T08:14:22.277Z,99387.44
2022-08-26T08:16:54.672Z,99383.09
2022-08-26T08:19:23.942Z,99386.34
2022-08-26T08:21:57.975Z,99387.44
2022-08-26T08:24:26.927Z,99380.09
2022-08-26T08:26:54.423Z,99373.59
2022-08-26T08:29:23.984Z,99380.69
2022-08-26T08:31:56.940Z,99380.16
2022-08-26T08:34:28.096Z,99372.22
2022-08-26T08:36:57.206Z,99377.44
2022-08-26T08:39:25.653Z,99380.22
2022-08-26T08:42:34.184Z,99381.06
2022-08-26T08:45:08.817Z,99381.63
2022-08-26T08:47:50.329Z,99375.91
2022-08-26T08:50:24.316Z,99376.13
2022-08-26T08:53:11.764Z,99372.88
2022-08-26T08:55:43.417Z,99373.44
2022-08-26T08:58:20.655Z,99369.06
2022-08-26T09:00:54.775Z,99375.34
2022-08-26T09:03:42.702Z,99366.88
2022-08-26T09:06:17.319Z,99350.97
2022-08-26T09:08:47.337Z,99355.88
2022-08-26T09:11:19.336Z,99353.97
2022-08-26T09:13:52.421Z,99355.88
2022-08-26T09:16:38.681Z,99356.72
2022-08-26T09:19:31.002Z,99352.84
2022-08-26T09:22:00.504Z,99350.91
2022-08-26T09:24:31.219Z,99353.09
2022-08-26T09:26:59.327Z,99345.44
2022-08-26T09:29:40.052Z,99338.31
2022-08-26T09:32:25.629Z,99345.72
2022-08-26T09:34:58.456Z,99340.16
2022-08-26T09:37:39.658Z,99342.12
2022-08-26T09:40:29.987Z,99338.81
2022-08-26T09:43:08.844Z,99336.59
2022-08-26T09:45:37.390Z,99333.22
2022-08-26T09:48:06.742Z,99340.91
2022-08-26T09:50:36.195Z,99331.53
2022-08-26T09:53:14.019Z,99332.59
2022-08-26T09:55:50.244Z,99321.28
2022-08-26T09:58:37.912Z,99328.75
2022-08-26T10:01:08.274Z,99318.84
2022-08-26T10:03:38.427Z,99325.16
2022-08-26T10:06:20.983Z,99321.00
2022-08-26T10:08:56.204Z,99320.88
2022-08-26T10:11:43.118Z,99318.69
2022-08-26T10:14:18.204Z,99321.50
2022-08-26T10:16:58.562Z,99319.50
2022-08-26T10:19:55.783Z,99310.00
2022-08-26T10:22:49.224Z,99310.97
2022-08-26T10:25:26.086Z,99309.53
2022-08-26T10:28:32.646Z,99306.47
2022-08-26T10:31:05.319Z,99309.47
2022-08-26T10:33:33.351Z,99309.66
2022-08-26T10:36:06.303Z,99306.97
2022-08-26T10:38:39.257Z,99302.50
2022-08-26T10:41:13.052Z,99301.38
2022-08-26T10:43:46.863Z,99304.72
2022-08-26T10:46:20.603Z,99294.25
2022-08-26T10:48:57.298Z,99294.72
2022-08-26T10:51:35.659Z,99291.50
2022-08-26T10:54:11.885Z,99286.50
2022-08-26T10:56:58.556Z,99290.22
2022-08-26T10:59:45.385Z,99294.84
2022-08-26T11:02:36.343Z,99284.81
2022-08-26T11:05:18.407Z,99279.75
2022-08-26T11:07:51.762Z,99282.78
2022-08-26T11:10:42.920Z,99285.91
2022-08-26T11:13:12.261Z,99280.75
2022-08-26T11:15:39.975Z,99280.97
2022-08-26T11:18:37.986Z,99274.31
2022-08-26T11:21:44.471Z,99276.41
2022-08-26T11:24:46.728Z,99274.16
2022-08-26T11:27:24.438Z,99260.84
2022-08-26T11:30:02.290Z,99271.31
2022-08-26T11:32:39.464Z,99264.13
2022-08-26T11:35:19.622Z,99252.16
2022-08-26T11:37:48.862Z,99251.47
2022-08-26T11:40:31.494Z,99253.78
2022-08-26T11:43:03.134Z,99247.34
2022-08-26T11:45:37.804Z,99249.25
2022-08-26T11:48:30.697Z,99250.28
2022-08-26T11:51:02.447Z,99248.44
2022-08-26T11:53:33.504Z,99245.75
2022-08-26T11:56:06.217Z,99239.66
2022-08-26T11:58:35.314Z,99239.84
2022-08-26T12:01:09.800Z,99237.78
2022-08-26T12:03:50.763Z,99235.97
2022-08-26T12:06:37.433Z,99225.16
2022-08-26T12:09:55.209Z,99224.78
2022-08-26T12:12:34.527Z,99226.25
2022-08-26T12:15:16.271Z,99223.41
2022-08-26T12:17:51.731Z,99221.25
2022-08-26T12:20:48.638Z,99209.34
2022-08-26T12:23:35.193Z,99205.34
2022-08-26T12:26:04.227Z,99205.38
2022-08-26T12:28:31.941Z,99205.69
2022-08-26T12:31:06.267Z,99197.12
2022-08-26T12:33:38.433Z,99197.94
2022-08-26T12:36:06.378Z,99194.88
2022-08-26T12:38:35.760Z,99191.63
2022-08-26T12:41:03.515Z,99190.66
2022-08-26T12:43:49.229Z,99186.56
2022-08-26T12:46:18.110Z,99184.53
2022-08-26T12:48:49.892Z,99189.47
2022-08-26T12:51:29.832Z,99182.44
2022-08-26T12:53:57.869Z,99176.88
2022-08-26T12:56:34.731Z,99175.72
2022-08-26T12:59:20.657Z,99172.69
2022-08-26T13:01:49.549Z,99166.69
2022-08-26T13:04:40.159Z,99169.16
2022-08-26T13:07:20.959Z,99170.84
2022-08-26T13:09:50.568Z,99161.06
2022-08-26T13:12:30.308Z,99157.97
2022-08-26T13:14:59.146Z,99153.59
2022-08-26T13:17:30.115Z,99145.41
2022-08-26T13:20:03.459Z,99146.84
2022-08-26T13:22:32.904Z,99143.34
2022-08-26T13:25:00.526Z,99139.44
2022-08-26T13:27:28.242Z,99142.88
2022-08-26T13:29:57.936Z,99141.22
2022-08-26T13:32:27.495Z,99140.66
2022-08-26T13:34:56.762Z,99131.06
2022-08-26T13:37:35.165Z,99134.53
2022-08-26T13:40:07.696Z,99128.47
2022-08-26T13:42:35.712Z,99130.41
2022-08-26T13:45:04.960Z,99131.06
2022-08-26T13:47:33.887Z,99128.50
2022-08-26T13:50:01.924Z,99120.38
2022-08-26T13:52:33.022Z,99116.56
2022-08-26T13:55:00.886Z,99120.62
2022-08-26T13:57:33.453Z,99119.81
2022-08-26T14:00:01.222Z,99123.91
2022-08-26T14:02:28.813Z,99110.06
2022-08-26T14:04:56.600Z,99110.06
2022-08-26T14:07:24.436Z,99111.28
2022-08-26T14:09:51.917Z,99099.22
2022-08-26T14:12:19.703Z,99099.06
2022-08-26T14:14:47.505Z,99095.81
2022-08-26T14:17:18.627Z,99102.47
2022-08-26T14:19:47.388Z,99107.03
2022-08-26T14:22:17.801Z,99106.00
2022-08-26T14:24:48.540Z,99107.47
2022-08-26T14:27:16.692Z,99116.91
2022-08-26T14:29:44.172Z,99115.44
2022-08-26T14:32:24.351Z,99112.72
2022-08-26T14:34:52.224Z,99113.03
2022-08-26T14:37:20.541Z,99116.00
2022-08-26T14:39:48.102Z,99117.63
2022-08-26T14:42:20.532Z,99113.03
2022-08-26T14:44:53.111Z,99112.56
2022-08-26T14:47:21.154Z,99114.03
2022-08-26T14:49:48.790Z,99110.59
2022-08-26T14:52:17.328Z,99112.41
2022-08-26T14:54:45.545Z,99107.19
2022-08-26T14:57:13.800Z,99105.50
2022-08-26T14:59:49.697Z,99103.25
2022-08-26T15:02:27.804Z,99102.63
2022-08-26T15:05:02.671Z,99101.94
2022-08-26T15:07:30.925Z,99092.47
2022-08-26T15:09:58.643Z,99096.84
2022-08-26T15:12:26.678Z,99088.56
2022-08-26T15:14:54.922Z,99086.78
2022-08-26T15:17:22.444Z,99080.66
2022-08-26T15:19:50.235Z,99084.13
2022-08-26T15:22:18.274Z,99087.41
2022-08-26T15:24:45.766Z,99083.00
2022-08-26T15:27:13.231Z,99088.69
2022-08-26T15:29:41.595Z,99089.47
2022-08-26T15:32:09.855Z,99075.09
2022-08-26T15:34:37.589Z,99077.84
2022-08-26T15:37:06.265Z,99070.38
2022-08-26T15:39:34.471Z,99074.25
2022-08-26T15:42:02.255Z,99073.09
2022-08-26T15:44:29.988Z,99077.59
2022-08-26T15:46:58.761Z,99072.16
2022-08-26T15:49:27.748Z,99071.78
2022-08-26T15:51:55.751Z,99066.22
2022-08-26T15:54:23.785Z,99065.91
2022-08-26T15:56:53.120Z,99065.09
2022-08-26T15:59:22.203Z,99067.66
2022-08-26T16:01:50.858Z,99063.47
2022-08-26T16:04:18.977Z,99055.41
2022-08-26T16:06:50.094Z,99061.47
2022-08-26T16:09:19.040Z,99048.41
2022-08-26T16:11:47.028Z,99050.22
2022-08-26T16:14:15.928Z,99052.41
2022-08-26T16:16:43.578Z,99041.06
2022-08-26T16:19:13.345Z,99040.16
2022-08-26T16:21:41.531Z,99044.28
2022-08-26T16:24:09.490Z,99042.06
2022-08-26T16:26:39.037Z,99036.38
2022-08-26T16:29:09.020Z,99042.00
2022-08-26T16:31:38.331Z,99046.41
2022-08-26T16:34:09.224Z,99038.44
2022-08-26T16:36:38.482Z,99040.06
2022-08-26T16:39:07.934Z,99037.53
2022-08-26T16:41:35.817Z,99049.66
2022-08-26T16:44:04.368Z,99052.72
2022-08-26T16:46:32.372Z,99055.91
2022-08-26T16:49:01.624Z,99052.47
2022-08-26T16:51:29.764Z,99054.00
2022-08-26T16:54:02.787Z,99054.69
2022-08-26T16:56:34.001Z,99055.91
2022-08-26T16:59:07.463Z,99052.91
2022-08-26T17:01:35.561Z,99052.12
2022-08-26T17:04:10.000Z,99050.81
2022-08-26T17:06:38.732Z,99051.38
2022-08-26T17:09:06.802Z,99048.69
2022-08-26T17:11:38.347Z,99057.59
2022-08-26T17:14:13.554Z,99049.72
2022-08-26T17:16:41.133Z,99050.06
2022-08-26T17:19:09.111Z,99044.03
2022-08-26T17:21:38.989Z,99049.22
2022-08-26T17:24:06.932Z,99042.75
2022-08-26T17:26:35.009Z,99045.16
2022-08-26T17:29:02.438Z,99042.41
2022-08-26T17:31:30.122Z,99048.34
2022-08-26T17:33:58.163Z,99057.22
2022-08-26T17:36:28.462Z,99049.53
2022-08-26T17:38:57.542Z,99052.06
2022-08-26T17:41:26.172Z,99054.09
2022-08-26T17:43:53.691Z,99060.03
2022-08-26T17:46:21.336Z,99055.09
2022-08-26T17:48:49.249Z,99051.47
2022-08-26T17:51:19.269Z,99050.22
2022-08-26T17:53:48.085Z,99055.19
2022-08-26T17:56:19.527Z,99051.25
2022-08-26T17:58:51.377Z,99045.94
2022-08-26T18:01:23.636Z,99057.13
2022-08-26T18:04:06.062Z,99057.84
2022-08-26T18:06:37.034Z,99060.06
2022-08-26T18:09:08.929Z,99063.37
2022-08-26T18:11:38.844Z,99059.50
2022-08-26T18:14:06.825Z,99069.16
2022-08-26T18:16:38.379Z,99065.59
2022-08-26T18:19:06.390Z,99062.28
2022-08-26T18:21:34.419Z,99061.59
2022-08-26T18:24:01.857Z,99060.44
2022-08-26T18:26:30.408Z,99061.59
2022-08-26T18:28:58.220Z,99059.94
2022-08-26T18:31:26.042Z,99060.22
2022-08-26T18:33:53.425Z,99050.41
2022-08-26T18:36:25.777Z,99053.63
2022-08-26T18:38:54.258Z,99047.66
2022-08-26T18:41:23.194Z,99056.16
2022-08-26T18:43:50.954Z,99058.88
2022-08-26T18:46:18.633Z,99056.97
2022-08-26T18:48:50.903Z,99058.06
2022-08-26T18:51:19.613Z,99066.81
2022-08-26T18:53:47.850Z,99063.00
2022-08-26T18:56:18.583Z,99064.06
2022-08-26T18:58:47.259Z,99061.84
2022-08-26T19:01:15.340Z,99068.44
2022-08-26T19:03:43.171Z,99062.63
2022-08-26T19:06:15.482Z,99067.31
2022-08-26T19:08:44.760Z,99072.78
2022-08-26T19:11:13.857Z,99077.91
2022-08-26T19:13:45.101Z,99083.69
2022-08-26T19:16:23.350Z,99083.72
2022-08-26T19:18:54.745Z,99096.00
2022-08-26T19:21:24.375Z,99090.41
2022-08-26T19:23:52.462Z,99087.81
2022-08-26T19:26:20.524Z,99087.91
2022-08-26T19:28:49.878Z,99091.59
2022-08-26T19:31:17.533Z,99084.34
2022-08-26T19:33:45.951Z,99088.38
2022-08-26T19:36:18.618Z,99089.13
2022-08-26T19:38:48.094Z,99086.47
2022-08-26T19:41:18.486Z,99091.00
2022-08-26T19:43:46.291Z,99094.16
2022-08-26T19:46:23.509Z,99090.22
2022-08-26T19:48:54.119Z,99091.59
2022-08-26T19:51:28.405Z,99095.22
2022-08-26T19:53:57.218Z,99093.34
2022-08-26T19:56:28.478Z,99092.09
2022-08-26T19:58:57.141Z,99090.94
2022-08-26T20:01:28.650Z,99100.03
2022-08-26T20:03:57.674Z,99090.66
2022-08-26T20:06:25.402Z,99098.19
2022-08-26T20:08:55.010Z,99102.59
2022-08-26T20:11:24.953Z,99094.03
2022-08-26T20:13:52.771Z,99105.44
2022-08-26T20:16:20.314Z,99108.75
2022-08-26T20:19:07.244Z,99104.81
2022-08-26T20:21:41.164Z,99108.66
2022-08-26T20:24:12.091Z,99109.41
2022-08-26T20:27:17.645Z,99116.78
2022-08-26T20:29:38.734Z,99121.31
2022-08-26T20:32:07.588Z,99120.66
2022-08-26T20:34:43.021Z,99112.47
2022-08-26T20:37:24.120Z,99116.66
2022-08-26T20:40:15.361Z,99122.78
2022-08-26T20:42:47.974Z,99131.16
2022-08-26T20:45:46.573Z,99127.31
2022-08-26T20:48:33.981Z,99122.81
2022-08-26T20:51:02.420Z,99127.06
2022-08-26T20:53:32.652Z,99130.06
2022-08-26T20:56:01.215Z,99139.59
2022-08-26T20:58:38.538Z,99138.19
2022-08-26T21:04:01.127Z,99145.28
2022-08-26T21:06:52.769Z,99142.25
2022-08-26T21:09:27.016Z,99143.62
2022-08-26T21:11:56.413Z,99144.09
2022-08-26T21:14:39.184Z,99144.38
2022-08-26T21:17:12.878Z,99147.09
2022-08-26T21:20:12.324Z,99149.56
2022-08-26T21:22:45.233Z,99152.47
2022-08-26T21:25:14.821Z,99151.25
2022-08-26T21:27:42.407Z,99147.91
2022-08-26T21:30:10.319Z,99152.41
2022-08-26T21:32:38.204Z,99149.69
2022-08-26T21:35:05.966Z,99145.66
2022-08-26T21:37:34.557Z,99148.88
2022-08-26T21:40:04.217Z,99152.47
2022-08-26T21:42:33.106Z,99148.28
2022-08-26T21:45:03.399Z,99152.25
2022-08-26T21:47:33.103Z,99145.78
2022-08-26T21:50:00.839Z,99148.75
2022-08-26T21:52:28.503Z,99149.81
2022-08-26T21:54:57.444Z,99144.72
2022-08-26T21:57:24.916Z,99148.03
2022-08-26T21:59:54.004Z,99144.69
2022-08-26T22:02:22.771Z,99145.03
2022-08-26T22:04:51.248Z,99140.53
2022-08-26T22:07:24.950Z,99137.59
2022-08-26T22:10:03.004Z,99135.19
2022-08-26T22:12:31.965Z,99144.44
2022-08-26T22:15:03.538Z,99145.16
2022-08-26T22:17:31.225Z,99141.56
2022-08-26T22:19:58.870Z,99140.81
2022-08-26T22:22:28.734Z,99143.81
2022-08-26T22:24:56.155Z,99139.09
2022-08-26T22:27:23.712Z,99134.09
2022-08-26T22:29:51.661Z,99138.53
2022-08-26T22:32:19.224Z,99127.62
2022-08-26T22:34:46.975Z,99128.69
2022-08-26T22:37:14.978Z,99125.09
2022-08-26T22:39:42.527Z,99129.25
2022-08-26T22:42:10.666Z,99125.78
2022-08-26T22:44:38.477Z,99127.31
2022-08-26T22:47:06.700Z,99128.28
2022-08-26T22:49:34.200Z,99123.22
2022-08-26T22:52:02.070Z,99122.41
2022-08-26T22:54:29.665Z,99116.22
2022-08-26T22:56:57.144Z,99123.03
2022-08-26T22:59:24.875Z,99118.47
2022-08-26T23:01:52.619Z,99116.31
2022-08-26T23:04:20.167Z,99114.56
2022-08-26T23:06:48.153Z,99115.44
2022-08-26T23:09:18.244Z,99111.03
2022-08-26T23:11:46.474Z,99106.91
2022-08-26T23:14:14.522Z,99111.22
2022-08-26T23:16:41.976Z,99115.00
2022-08-26T23:19:09.990Z,99116.16
2022-08-26T23:21:37.892Z,99115.63
2022-08-26T23:24:06.031Z,99109.72
2022-08-26T23:26:33.710Z,99116.78
2022-08-26T23:29:01.521Z,99112.81
2022-08-26T23:31:28.962Z,99110.38
2022-08-26T23:34:14.941Z,99105.62
2022-08-26T23:36:43.379Z,99102.25
2022-08-26T23:39:14.228Z,99098.50
2022-08-26T23:41:41.732Z,99100.47
2022-08-26T23:44:09.432Z,99092.97
2022-08-26T23:46:36.948Z,99096.16
2022-08-26T23:49:06.075Z,99091.31
2022-08-26T23:51:52.642Z,99090.41
2022-08-26T23:54:19.960Z,99093.87
2022-08-26T23:56:47.712Z,99094.03
2022-08-26T23:59:15.638Z,99093.97
